Terminal Aerodrome Forecast
Issued by NWS Shreveport, LA

Home | Current Version | Previous Version | Text Only | Print | Product List | Glossary On
Versions: 1 2 3 4 5 6 7 8 9 10 11 12 13 14 15 16 17 18 19 20 21 22 23 24 25 26
378
FTUS44 KSHV 181134
TAFSHV
TAF
KSHV 181134Z 1812/1912 06006KT 6SM -RA BR OVC005
      TEMPO 1812/1815 4SM SHRA BR OVC004
     FM181800 07006KT 4SM -SHRA BR OVC006
     FM182000 07005KT 2SM -SHRA BR OVC004
     FM190000 09005KT 2SM -RA BR OVC004
     FM190900 12005KT 4SM -RA BR OVC007=

USA.gov is the U.S. government's official web portal to all federal, state and local government web resources and services.